createdAt,value
2018-12-12T00:00:13.214Z,2.50
2018-12-12T00:01:18.745Z,5.30
2018-12-12T00:02:24.278Z,2.80
2018-12-12T00:03:29.813Z,2.90
2018-12-12T00:04:35.345Z,3.80
2018-12-12T00:05:40.879Z,2.50
2018-12-12T00:06:46.408Z,3.40
2018-12-12T00:07:51.938Z,3.50
2018-12-12T00:08:57.471Z,3.10
2018-12-12T00:10:03.006Z,6.40
2018-12-12T00:11:08.536Z,2.60
2018-12-12T00:12:14.069Z,2.50
2018-12-12T00:13:19.600Z,2.50
2018-12-12T00:14:25.134Z,1.60
2018-12-12T00:15:30.661Z,2.50
2018-12-12T00:16:36.196Z,2.80
2018-12-12T00:17:41.729Z,2.30
2018-12-12T00:18:47.261Z,2.30
2018-12-12T00:19:52.795Z,3.00
2018-12-12T00:20:58.322Z,2.20
2018-12-12T00:22:03.854Z,2.50
2018-12-12T00:23:09.388Z,3.20
2018-12-12T00:24:14.920Z,4.90
2018-12-12T00:25:20.450Z,2.80
2018-12-12T00:26:25.985Z,4.30
2018-12-12T00:27:31.517Z,1.90
2018-12-12T00:28:37.048Z,2.60
2018-12-12T00:29:42.579Z,3.00
2018-12-12T00:30:48.113Z,2.30
2018-12-12T00:31:53.643Z,2.40
2018-12-12T00:32:59.177Z,4.40
2018-12-12T00:34:04.711Z,2.10
2018-12-12T00:35:10.255Z,3.10
2018-12-12T00:36:15.774Z,2.60
2018-12-12T00:37:21.305Z,3.50
2018-12-12T00:38:26.838Z,2.50
2018-12-12T00:39:32.367Z,2.10
2018-12-12T00:40:37.899Z,3.30
2018-12-12T00:41:43.434Z,3.70
2018-12-12T00:42:48.964Z,1.40
2018-12-12T00:43:54.496Z,3.00
2018-12-12T00:45:00.028Z,3.50
2018-12-12T00:46:05.562Z,3.70
2018-12-12T00:47:11.093Z,2.40
2018-12-12T00:48:16.622Z,3.10
2018-12-12T00:49:22.157Z,3.10
2018-12-12T00:50:27.686Z,2.80
2018-12-12T00:51:33.227Z,1.90
2018-12-12T00:52:38.752Z,3.80
2018-12-12T00:53:44.287Z,4.00
2018-12-12T00:54:49.815Z,2.00
2018-12-12T00:55:55.349Z,2.80
2018-12-12T00:57:00.882Z,2.10
2018-12-12T00:58:06.408Z,2.30
2018-12-12T00:59:11.949Z,4.00
2018-12-12T01:00:17.478Z,2.00
2018-12-12T01:01:23.003Z,3.00
2018-12-12T01:02:28.543Z,2.70
2018-12-12T01:03:34.069Z,1.90
2018-12-12T01:04:39.602Z,1.70
2018-12-12T01:05:45.136Z,4.40
2018-12-12T01:06:50.663Z,2.90
2018-12-12T01:07:56.197Z,2.10
2018-12-12T01:09:01.730Z,2.10
2018-12-12T01:10:07.263Z,2.10
2018-12-12T01:11:12.787Z,1.90
2018-12-12T01:12:18.322Z,1.80
2018-12-12T01:13:23.853Z,2.00
2018-12-12T01:14:29.383Z,1.80
2018-12-12T01:15:34.915Z,3.00
2018-12-12T01:16:40.449Z,2.00
2018-12-12T01:17:45.987Z,3.10
2018-12-12T01:18:51.514Z,4.50
2018-12-12T01:19:57.041Z,3.60
2018-12-12T01:21:02.572Z,2.60
2018-12-12T01:22:08.107Z,3.10
2018-12-12T01:23:13.640Z,3.40
2018-12-12T01:24:19.173Z,2.40
2018-12-12T01:25:24.718Z,3.90
2018-12-12T01:26:30.232Z,3.60
2018-12-12T01:27:35.762Z,4.50
2018-12-12T01:28:41.296Z,3.60
2018-12-12T01:29:46.826Z,5.00
2018-12-12T01:30:52.365Z,3.90
2018-12-12T01:31:57.891Z,5.60
2018-12-12T01:33:03.427Z,6.20
2018-12-12T01:34:08.958Z,5.90
2018-12-12T01:35:14.490Z,5.30
2018-12-12T01:36:20.018Z,11.70
2018-12-12T01:37:25.550Z,9.70
2018-12-12T01:38:31.081Z,7.10
2018-12-12T01:39:36.613Z,4.50
2018-12-12T01:40:42.147Z,3.30
2018-12-12T01:41:47.682Z,3.70
2018-12-12T01:42:53.210Z,3.80
2018-12-12T01:43:58.732Z,3.80
2018-12-12T01:45:04.269Z,3.10
2018-12-12T01:46:09.801Z,3.90
2018-12-12T01:47:15.335Z,2.90
2018-12-12T01:48:20.866Z,2.70
2018-12-12T01:49:26.396Z,2.80
2018-12-12T01:50:31.930Z,6.80
2018-12-12T01:51:37.460Z,2.70
2018-12-12T01:52:42.999Z,4.10
2018-12-12T01:53:48.530Z,4.00
2018-12-12T01:54:54.054Z,2.60
2018-12-12T01:55:59.589Z,2.80
2018-12-12T01:57:05.122Z,4.10
2018-12-12T01:58:10.651Z,2.40
2018-12-12T01:59:16.187Z,3.10
2018-12-12T02:00:21.713Z,2.90
2018-12-12T02:01:27.245Z,3.50
2018-12-12T02:02:32.778Z,4.50
2018-12-12T02:03:38.312Z,2.20
2018-12-12T02:04:43.846Z,3.10
2018-12-12T02:05:49.370Z,5.40
2018-12-12T02:06:54.901Z,3.00
2018-12-12T02:08:00.431Z,2.50
2018-12-12T02:09:05.969Z,3.30
2018-12-12T02:10:11.501Z,4.60
2018-12-12T02:11:17.029Z,2.70
2018-12-12T02:12:22.557Z,3.60
2018-12-12T02:13:28.088Z,3.40
2018-12-12T02:14:33.623Z,3.70
2018-12-12T02:15:39.155Z,2.90
2018-12-12T02:16:44.716Z,3.50
2018-12-12T02:17:50.213Z,17.20
2018-12-12T02:18:55.747Z,4.50
2018-12-12T02:20:01.280Z,3.30
2018-12-12T02:21:06.816Z,3.30
2018-12-12T02:22:12.339Z,2.90
2018-12-12T02:23:17.870Z,2.80
2018-12-12T02:24:23.400Z,2.60
2018-12-12T02:25:28.932Z,2.90
2018-12-12T02:26:34.465Z,3.40
2018-12-12T02:27:39.998Z,3.50
2018-12-12T02:28:45.527Z,3.80
2018-12-12T02:29:51.063Z,3.80
2018-12-12T02:30:56.591Z,2.70
2018-12-12T02:32:02.123Z,3.90
2018-12-12T02:33:07.653Z,3.60
2018-12-12T02:34:13.183Z,4.40
2018-12-12T02:35:18.716Z,2.90
2018-12-12T02:36:24.247Z,3.30
2018-12-12T02:37:29.778Z,2.70
2018-12-12T02:38:35.308Z,2.90
2018-12-12T02:39:40.839Z,4.20
2018-12-12T02:40:46.373Z,3.10
2018-12-12T02:41:51.901Z,3.30
2018-12-12T02:42:57.430Z,3.90
2018-12-12T02:44:02.966Z,4.30
2018-12-12T02:45:08.497Z,3.90
2018-12-12T02:46:14.029Z,3.70
2018-12-12T02:47:19.555Z,4.30
2018-12-12T02:48:25.086Z,2.60
2018-12-12T02:49:32.296Z,3.10
2018-12-12T02:50:36.148Z,4.30
2018-12-12T02:51:41.683Z,2.90
2018-12-12T02:52:47.209Z,4.00
2018-12-12T02:53:52.742Z,3.70
2018-12-12T02:54:58.271Z,2.80
2018-12-12T02:56:03.801Z,3.80
2018-12-12T02:57:09.344Z,5.50
2018-12-12T02:58:14.867Z,3.20
2018-12-12T02:59:20.398Z,4.40
2018-12-12T03:00:25.931Z,3.90
2018-12-12T03:01:31.467Z,3.40
2018-12-12T03:02:36.993Z,2.70
2018-12-12T03:03:42.520Z,3.50
2018-12-12T03:04:48.049Z,3.80
2018-12-12T03:05:53.579Z,2.90
2018-12-12T03:06:59.112Z,3.40
2018-12-12T03:08:04.641Z,3.10
2018-12-12T03:09:10.175Z,4.10
2018-12-12T03:10:15.703Z,3.20
2018-12-12T03:11:21.239Z,3.30
2018-12-12T03:12:26.765Z,3.70
2018-12-12T03:13:32.297Z,2.60
2018-12-12T03:14:37.842Z,4.50
2018-12-12T03:15:43.358Z,3.70
2018-12-12T03:16:48.888Z,2.40
2018-12-12T03:17:54.420Z,2.80
2018-12-12T03:18:59.955Z,2.70
2018-12-12T03:20:05.479Z,3.80
2018-12-12T03:21:11.013Z,2.60
2018-12-12T03:22:16.542Z,3.40
2018-12-12T03:23:22.075Z,2.80
2018-12-12T03:24:27.603Z,3.20
2018-12-12T03:25:33.135Z,2.50
2018-12-12T03:26:38.671Z,6.20
2018-12-12T03:27:44.196Z,3.60
2018-12-12T03:28:49.726Z,4.00
2018-12-12T03:29:55.257Z,4.20
2018-12-12T03:31:00.788Z,4.40
2018-12-12T03:32:06.320Z,3.40
2018-12-12T03:33:11.854Z,3.00
2018-12-12T03:34:17.380Z,3.90
2018-12-12T03:35:22.915Z,3.90
2018-12-12T03:36:28.443Z,2.80
2018-12-12T03:37:33.973Z,3.00
2018-12-12T03:38:39.505Z,3.50
2018-12-12T03:39:45.032Z,2.90
2018-12-12T03:40:50.562Z,4.20
2018-12-12T03:41:56.095Z,3.20
2018-12-12T03:43:01.629Z,3.90
2018-12-12T03:44:07.162Z,2.50
2018-12-12T03:45:12.688Z,2.20
2018-12-12T03:46:18.218Z,3.00
2018-12-12T03:47:23.812Z,3.30
2018-12-12T03:48:29.279Z,2.60
2018-12-12T03:49:34.809Z,3.60
2018-12-12T03:50:40.341Z,5.10
2018-12-12T03:51:46.131Z,3.10
2018-12-12T03:52:51.402Z,4.30
2018-12-12T03:53:56.939Z,3.60
2018-12-12T03:55:02.466Z,4.10
2018-12-12T03:56:08.000Z,6.90
2018-12-12T03:57:13.528Z,3.00
2018-12-12T03:58:19.057Z,3.00
2018-12-12T03:59:24.591Z,5.50
2018-12-12T04:00:30.122Z,5.30
2018-12-12T04:01:35.651Z,4.90
2018-12-12T04:02:41.181Z,4.40
2018-12-12T04:03:46.709Z,4.70
2018-12-12T04:04:52.242Z,3.20
2018-12-12T04:05:57.773Z,3.10
2018-12-12T04:07:03.302Z,3.20
2018-12-12T04:08:08.835Z,3.40
2018-12-12T04:09:14.390Z,5.10
2018-12-12T04:10:19.894Z,2.80
2018-12-12T04:11:25.421Z,4.30
2018-12-12T04:12:30.958Z,3.00
2018-12-12T04:13:36.487Z,3.20
2018-12-12T04:14:42.015Z,3.10
2018-12-12T04:15:47.545Z,3.00
2018-12-12T04:16:53.078Z,3.10
2018-12-12T04:17:58.610Z,3.70
2018-12-12T04:19:04.138Z,4.00
2018-12-12T04:20:09.672Z,4.00
2018-12-12T04:21:15.201Z,2.80
2018-12-12T04:22:20.729Z,2.50
2018-12-12T04:23:26.260Z,5.50
2018-12-12T04:24:31.789Z,2.60
2018-12-12T04:25:37.324Z,3.20
2018-12-12T04:26:42.852Z,3.30
2018-12-12T04:27:48.387Z,3.60
2018-12-12T04:28:53.915Z,3.90
2018-12-12T04:29:59.446Z,4.50
2018-12-12T04:31:04.973Z,5.50
2018-12-12T04:32:10.509Z,6.10
2018-12-12T04:33:16.036Z,3.90
2018-12-12T04:34:21.567Z,4.70
2018-12-12T04:35:27.098Z,5.30
2018-12-12T04:36:32.638Z,5.30
2018-12-12T04:37:38.165Z,7.90
2018-12-12T04:38:43.687Z,7.30
2018-12-12T04:39:49.217Z,3.40
2018-12-12T04:40:54.751Z,4.90
2018-12-12T04:42:00.279Z,4.40
2018-12-12T04:43:05.817Z,7.00
2018-12-12T04:44:11.341Z,5.80
2018-12-12T04:45:16.874Z,3.80
2018-12-12T04:46:22.409Z,4.80
2018-12-12T04:47:27.932Z,5.20
2018-12-12T04:48:33.464Z,5.40
2018-12-12T04:49:38.995Z,5.20
2018-12-12T04:50:44.532Z,4.60
2018-12-12T04:51:50.053Z,5.00
2018-12-12T04:52:55.586Z,5.30
2018-12-12T04:54:01.112Z,4.40
2018-12-12T04:55:06.645Z,4.50
2018-12-12T04:56:12.184Z,6.10
2018-12-12T04:57:17.706Z,5.00
2018-12-12T04:58:23.237Z,7.30
2018-12-12T04:59:28.773Z,5.10
2018-12-12T05:00:34.297Z,5.40
2018-12-12T05:01:39.828Z,5.90
2018-12-12T05:02:45.366Z,3.10
2018-12-12T05:03:50.892Z,3.60
2018-12-12T05:04:56.418Z,3.90
2018-12-12T05:06:01.951Z,4.40
2018-12-12T05:07:07.485Z,4.20
2018-12-12T05:08:13.014Z,4.10
2018-12-12T05:09:18.542Z,4.50
2018-12-12T05:10:24.075Z,3.70
2018-12-12T05:11:29.604Z,4.10
2018-12-12T05:12:35.139Z,4.80
2018-12-12T05:13:40.663Z,3.90
2018-12-12T05:14:46.195Z,6.50
2018-12-12T05:15:51.725Z,6.30
2018-12-12T05:16:57.256Z,5.10
2018-12-12T05:18:02.793Z,4.50
2018-12-12T05:19:08.316Z,4.70
2018-12-12T05:20:13.846Z,7.50
2018-12-12T05:21:19.377Z,5.40
2018-12-12T05:22:24.906Z,6.70
2018-12-12T05:23:30.439Z,5.10
2018-12-12T05:24:36.286Z,7.70
2018-12-12T05:25:41.497Z,11.40
2018-12-12T05:26:47.035Z,15.60
2018-12-12T05:27:52.561Z,17.10
2018-12-12T05:28:58.093Z,18.70
2018-12-12T05:30:03.623Z,18.50
2018-12-12T05:31:09.155Z,21.10
2018-12-12T05:32:14.684Z,21.40
2018-12-12T05:33:20.213Z,25.40
2018-12-12T05:34:25.743Z,20.00
2018-12-12T05:35:31.278Z,22.40
2018-12-12T05:36:36.805Z,18.90
2018-12-12T05:37:49.497Z,18.10
2018-12-12T05:38:47.869Z,11.50
2018-12-12T05:39:53.400Z,10.60
2018-12-12T05:40:58.930Z,10.00
2018-12-12T05:42:04.464Z,10.40
2018-12-12T05:43:09.992Z,9.30
2018-12-12T05:44:15.519Z,9.50
2018-12-12T05:45:21.053Z,7.30
2018-12-12T05:46:26.585Z,10.20
2018-12-12T05:47:32.111Z,10.80
2018-12-12T05:48:37.642Z,8.40
2018-12-12T05:49:43.172Z,6.80
2018-12-12T05:50:48.706Z,7.70
2018-12-12T05:51:54.233Z,6.30
2018-12-12T05:52:59.762Z,7.50
2018-12-12T05:54:05.297Z,7.30
2018-12-12T05:55:10.823Z,6.80
2018-12-12T05:56:16.355Z,6.50
2018-12-12T05:57:21.886Z,7.50
2018-12-12T05:58:27.415Z,6.00
2018-12-12T05:59:32.944Z,6.50
2018-12-12T06:00:38.478Z,6.70
2018-12-12T06:01:44.011Z,6.30
2018-12-12T06:02:49.543Z,4.70
2018-12-12T06:03:55.066Z,6.80
2018-12-12T06:05:00.601Z,6.10
2018-12-12T06:06:06.130Z,5.50
2018-12-12T06:07:11.657Z,6.30
2018-12-12T06:08:17.192Z,6.30
2018-12-12T06:09:22.722Z,5.60
2018-12-12T06:10:28.251Z,5.00
2018-12-12T06:11:33.783Z,5.60
2018-12-12T06:12:39.311Z,6.30
2018-12-12T06:13:44.844Z,5.70
2018-12-12T06:14:50.376Z,5.40
2018-12-12T06:15:55.909Z,5.10
2018-12-12T06:17:01.440Z,4.20
2018-12-12T06:18:06.964Z,4.50
2018-12-12T06:19:12.494Z,3.30
2018-12-12T06:20:18.026Z,4.20
2018-12-12T06:21:23.556Z,6.30
2018-12-12T06:22:29.094Z,4.30
2018-12-12T06:23:34.624Z,8.60
2018-12-12T06:24:40.150Z,4.80
2018-12-12T06:25:45.680Z,11.70
2018-12-12T06:26:51.211Z,8.20
2018-12-12T06:27:56.745Z,11.40
2018-12-12T06:29:02.270Z,11.90
2018-12-12T06:30:07.801Z,10.10
2018-12-12T06:31:13.337Z,12.20
2018-12-12T06:32:18.867Z,18.10
2018-12-12T06:33:24.399Z,27.30
2018-12-12T06:34:29.927Z,23.50
2018-12-12T06:35:35.454Z,27.20
2018-12-12T06:36:40.984Z,28.40
2018-12-12T06:37:46.516Z,16.40
2018-12-12T06:40:23.650Z,10.70
2018-12-12T06:41:29.144Z,10.40
2018-12-12T06:43:27.553Z,8.60
2018-12-12T06:44:33.075Z,9.60
2018-12-12T06:46:31.500Z,8.40
2018-12-12T06:47:37.009Z,5.70
2018-12-12T06:49:35.404Z,4.90
2018-12-12T06:50:40.931Z,4.70
2018-12-12T06:52:39.351Z,4.30
2018-12-12T06:53:44.858Z,5.30
2018-12-12T06:54:50.388Z,4.70
2018-12-12T06:55:55.925Z,4.10
2018-12-12T06:57:01.454Z,4.40
2018-12-12T06:58:06.975Z,4.40
2018-12-12T06:59:12.582Z,5.40
2018-12-12T07:00:18.038Z,3.90
2018-12-12T07:01:23.567Z,3.20
2018-12-12T07:02:29.096Z,4.40
2018-12-12T07:03:34.632Z,4.20
2018-12-12T07:04:40.159Z,4.50
2018-12-12T07:05:45.688Z,4.10
2018-12-12T07:06:51.218Z,4.00
2018-12-12T07:07:56.752Z,3.70
2018-12-12T07:09:02.285Z,3.20
2018-12-12T07:10:07.813Z,4.40
2018-12-12T07:11:13.348Z,3.90
2018-12-12T07:12:18.877Z,3.10
2018-12-12T07:13:24.405Z,4.40
2018-12-12T07:14:29.936Z,4.20
2018-12-12T07:15:35.469Z,3.50
2018-12-12T07:16:41.003Z,4.70
2018-12-12T07:17:46.535Z,5.00
2018-12-12T07:18:52.059Z,4.50
2018-12-12T07:19:57.594Z,5.50
2018-12-12T07:21:03.122Z,4.80
2018-12-12T07:22:08.652Z,5.10
2018-12-12T07:23:14.187Z,3.40
2018-12-12T07:24:19.716Z,4.00
2018-12-12T07:25:25.245Z,4.90
2018-12-12T07:26:30.775Z,6.30
2018-12-12T07:27:36.310Z,5.10
2018-12-12T07:28:41.837Z,5.40
2018-12-12T07:29:47.373Z,6.60
2018-12-12T07:30:52.901Z,4.80
2018-12-12T07:31:58.432Z,5.70
2018-12-12T07:33:03.966Z,6.10
2018-12-12T07:34:09.492Z,5.30
2018-12-12T07:35:15.023Z,6.00
2018-12-12T07:36:20.555Z,5.70
2018-12-12T07:37:26.085Z,4.60
2018-12-12T07:38:31.613Z,7.00
2018-12-12T07:39:37.151Z,4.50
2018-12-12T07:40:42.679Z,5.00
2018-12-12T07:41:48.211Z,5.00
2018-12-12T07:42:53.739Z,5.90
2018-12-12T07:43:59.267Z,5.40
2018-12-12T07:45:04.808Z,5.00
2018-12-12T07:46:10.333Z,6.40
2018-12-12T07:47:15.865Z,4.90
2018-12-12T07:48:21.402Z,6.90
2018-12-12T07:49:26.925Z,7.70
2018-12-12T07:50:32.461Z,166.00
2018-12-12T07:51:37.990Z,173.30
2018-12-12T07:52:43.583Z,155.30
2018-12-12T07:53:49.050Z,55.30
2018-12-12T07:54:54.584Z,24.70
2018-12-12T07:56:00.115Z,11.40
2018-12-12T07:57:05.643Z,8.80
2018-12-12T07:58:11.182Z,8.10
2018-12-12T07:59:16.713Z,6.10
2018-12-12T08:00:22.245Z,7.90
2018-12-12T08:01:27.772Z,6.50
2018-12-12T08:02:33.304Z,4.90
2018-12-12T08:03:38.831Z,8.40
2018-12-12T08:04:44.366Z,6.00
2018-12-12T08:05:49.898Z,8.70
2018-12-12T08:06:56.325Z,6.00
2018-12-12T08:08:00.955Z,6.50
2018-12-12T08:09:06.490Z,6.80
2018-12-12T08:10:12.021Z,5.40
2018-12-12T08:11:17.553Z,5.50
2018-12-12T08:12:23.087Z,5.50
2018-12-12T08:13:28.612Z,5.90
2018-12-12T08:14:34.149Z,5.60
2018-12-12T08:15:39.678Z,6.20
2018-12-12T08:16:45.211Z,6.70
2018-12-12T08:17:50.739Z,5.90
2018-12-12T08:18:56.271Z,6.00
2018-12-12T08:20:01.806Z,5.50
2018-12-12T08:21:07.338Z,6.60
2018-12-12T08:22:12.868Z,7.30
2018-12-12T08:23:18.399Z,5.50
2018-12-12T08:24:23.926Z,5.20
2018-12-12T08:25:29.459Z,5.60
2018-12-12T08:26:34.989Z,6.40
2018-12-12T08:27:40.526Z,6.70
2018-12-12T08:28:46.055Z,8.50
2018-12-12T08:29:51.583Z,8.50
2018-12-12T08:30:57.117Z,7.30
2018-12-12T08:32:02.651Z,7.30
2018-12-12T08:33:11.096Z,9.40
2018-12-12T08:34:13.712Z,5.70
2018-12-12T08:35:19.245Z,6.20
2018-12-12T08:36:24.776Z,8.20
2018-12-12T08:37:30.302Z,7.50
2018-12-12T08:38:36.768Z,8.70
2018-12-12T08:39:41.369Z,5.90
2018-12-12T08:40:46.906Z,5.60
2018-12-12T08:41:52.435Z,7.90
2018-12-12T08:42:57.964Z,6.50
2018-12-12T08:44:03.500Z,5.50
2018-12-12T08:45:09.027Z,6.00
2018-12-12T08:46:14.561Z,6.80
2018-12-12T08:47:20.095Z,8.30
2018-12-12T08:48:25.622Z,4.60
2018-12-12T08:49:31.152Z,6.70
2018-12-12T08:50:36.687Z,7.50
2018-12-12T08:51:42.215Z,6.60
2018-12-12T08:52:47.750Z,8.00
2018-12-12T08:53:53.283Z,5.80
2018-12-12T08:54:58.812Z,9.30
2018-12-12T08:56:04.340Z,6.90
2018-12-12T08:57:09.876Z,10.10
2018-12-12T08:58:15.406Z,5.90
2018-12-12T08:59:20.936Z,5.40
2018-12-12T09:00:26.469Z,9.70
2018-12-12T09:01:32.002Z,7.20
2018-12-12T09:02:37.538Z,5.50
2018-12-12T09:03:43.062Z,7.10
2018-12-12T09:04:48.596Z,7.70
2018-12-12T09:05:54.125Z,9.00
2018-12-12T09:06:59.663Z,5.30
2018-12-12T09:08:05.189Z,10.60
2018-12-12T09:09:10.720Z,7.50
2018-12-12T09:10:16.253Z,8.10
2018-12-12T09:11:21.783Z,6.00
2018-12-12T09:12:27.315Z,7.80
2018-12-12T09:13:32.849Z,10.50
2018-12-12T09:14:38.382Z,10.00
2018-12-12T09:15:43.913Z,9.70
2018-12-12T09:18:21.045Z,5.90
2018-12-12T09:19:26.543Z,7.20
2018-12-12T09:21:24.953Z,5.50
2018-12-12T09:22:30.480Z,5.50
2018-12-12T09:24:28.898Z,5.30
2018-12-12T09:25:34.412Z,7.60
2018-12-12T09:27:32.811Z,7.80
2018-12-12T09:28:38.347Z,7.40
2018-12-12T09:30:36.770Z,6.90
2018-12-12T09:31:42.277Z,8.50
2018-12-12T09:33:40.676Z,9.90
2018-12-12T09:34:46.204Z,9.40
2018-12-12T09:35:51.733Z,7.60
2018-12-12T09:36:57.263Z,7.60
2018-12-12T09:38:02.797Z,7.00
2018-12-12T09:39:08.326Z,9.80
2018-12-12T09:40:13.858Z,7.10
2018-12-12T09:41:19.391Z,6.00
2018-12-12T09:42:24.918Z,5.90
2018-12-12T09:43:30.449Z,5.90
2018-12-12T09:44:35.981Z,11.40
2018-12-12T09:45:41.516Z,8.00
2018-12-12T09:46:47.051Z,10.90
2018-12-12T09:47:52.578Z,10.90
2018-12-12T09:48:58.114Z,13.80
2018-12-12T09:50:03.653Z,10.10
2018-12-12T09:51:09.180Z,7.10
2018-12-12T09:52:14.707Z,7.30
2018-12-12T09:53:20.239Z,7.50
2018-12-12T09:54:25.770Z,12.00
2018-12-12T09:55:31.299Z,7.00
2018-12-12T09:56:36.839Z,5.10
2018-12-12T09:57:42.367Z,5.80
2018-12-12T09:58:47.901Z,7.30
2018-12-12T09:59:53.430Z,6.40
2018-12-12T10:00:58.959Z,6.60
2018-12-12T10:02:04.496Z,7.70
2018-12-12T10:03:10.027Z,9.90
2018-12-12T10:04:15.554Z,6.40
2018-12-12T10:05:21.094Z,9.00
2018-12-12T10:06:26.623Z,8.50
2018-12-12T10:07:32.154Z,11.30
2018-12-12T10:08:37.689Z,8.80
2018-12-12T10:09:43.216Z,6.40
2018-12-12T10:10:48.752Z,8.10
2018-12-12T10:11:54.281Z,11.80
2018-12-12T10:12:59.825Z,7.00
2018-12-12T10:14:05.346Z,9.40
2018-12-12T10:15:10.878Z,5.50
2018-12-12T10:16:16.408Z,11.90
2018-12-12T10:17:21.940Z,6.30
2018-12-12T10:18:27.470Z,11.20
2018-12-12T10:19:33.003Z,8.10
2018-12-12T10:20:38.537Z,6.60
2018-12-12T10:21:44.071Z,9.50
2018-12-12T10:22:49.604Z,8.80
2018-12-12T10:23:55.133Z,8.80
2018-12-12T10:25:00.673Z,5.90
2018-12-12T10:26:06.198Z,9.60
2018-12-12T10:27:11.736Z,11.30
2018-12-12T10:28:17.268Z,8.00
2018-12-12T10:29:22.798Z,9.60
2018-12-12T10:30:28.325Z,6.30
2018-12-12T10:31:33.866Z,10.90
2018-12-12T10:32:39.390Z,8.40
2018-12-12T10:33:44.926Z,8.30
2018-12-12T10:34:50.458Z,10.90
2018-12-12T10:35:55.988Z,10.60
2018-12-12T10:37:01.523Z,8.50
2018-12-12T10:38:07.056Z,9.70
2018-12-12T10:39:12.582Z,8.40
2018-12-12T10:40:18.118Z,7.90
2018-12-12T10:41:23.648Z,7.80
2018-12-12T10:42:29.177Z,6.80
2018-12-12T10:43:34.712Z,9.90
2018-12-12T10:44:40.242Z,7.00
2018-12-12T10:47:17.367Z,7.70
2018-12-12T10:48:22.882Z,9.20
2018-12-12T10:50:21.291Z,7.70
2018-12-12T10:51:26.810Z,6.80
2018-12-12T10:53:25.213Z,7.40
2018-12-12T10:54:30.746Z,8.60
2018-12-12T10:56:29.173Z,9.00
2018-12-12T10:57:34.672Z,7.50
2018-12-12T10:59:33.075Z,8.60
2018-12-12T11:00:38.608Z,6.70
2018-12-12T11:02:37.031Z,10.80
2018-12-12T11:03:44.332Z,8.80
2018-12-12T11:05:40.939Z,6.30
2018-12-12T11:06:46.472Z,5.90
2018-12-12T11:07:52.001Z,13.20
2018-12-12T11:08:57.536Z,8.60
2018-12-12T11:10:03.061Z,9.70
2018-12-12T11:11:08.598Z,8.00
2018-12-12T11:12:14.130Z,5.30
2018-12-12T11:13:19.659Z,7.70
2018-12-12T11:14:25.195Z,8.20
2018-12-12T11:15:30.726Z,6.60
2018-12-12T11:16:36.255Z,9.10
2018-12-12T11:17:41.798Z,6.90
2018-12-12T11:18:47.321Z,5.90
2018-12-12T11:19:52.850Z,6.90
2018-12-12T11:20:58.380Z,5.70
2018-12-12T11:22:03.914Z,8.70
2018-12-12T11:23:09.446Z,6.40
2018-12-12T11:24:14.990Z,8.20
2018-12-12T11:25:20.511Z,6.80
2018-12-12T11:26:26.045Z,9.10
2018-12-12T11:27:31.578Z,7.80
2018-12-12T11:28:37.108Z,7.10
2018-12-12T11:29:42.649Z,8.30
2018-12-12T11:30:48.219Z,9.60
2018-12-12T11:31:53.714Z,10.10
2018-12-12T11:32:59.244Z,8.60
2018-12-12T11:34:04.771Z,6.30
2018-12-12T11:35:10.306Z,7.10
2018-12-12T11:36:15.839Z,6.50
2018-12-12T11:37:21.370Z,9.00
2018-12-12T11:38:26.901Z,4.90
2018-12-12T11:39:32.436Z,5.60
2018-12-12T11:40:37.970Z,7.30
2018-12-12T11:41:43.502Z,7.30
2018-12-12T11:42:49.036Z,6.70
2018-12-12T11:43:54.561Z,7.20
2018-12-12T11:45:00.102Z,7.30
2018-12-12T11:46:05.628Z,6.30
2018-12-12T11:47:11.170Z,6.40
2018-12-12T11:48:16.695Z,5.50
2018-12-12T11:49:22.222Z,6.80
2018-12-12T11:50:27.758Z,5.80
2018-12-12T11:51:33.291Z,8.80
2018-12-12T11:52:38.827Z,5.90
2018-12-12T11:53:44.363Z,4.30
2018-12-12T11:54:49.888Z,7.80
2018-12-12T11:55:55.422Z,6.90
2018-12-12T11:57:00.953Z,4.90
2018-12-12T11:58:06.482Z,4.80
2018-12-12T11:59:12.019Z,8.00
2018-12-12T12:00:17.550Z,4.40
2018-12-12T12:01:23.085Z,4.30
2018-12-12T12:02:28.615Z,5.00
2018-12-12T12:03:34.146Z,5.00
2018-12-12T12:04:39.677Z,5.70
2018-12-12T12:05:45.213Z,5.50
2018-12-12T12:06:50.742Z,6.20
2018-12-12T12:07:56.279Z,5.50
2018-12-12T12:09:01.805Z,5.80
2018-12-12T12:10:07.339Z,4.60
2018-12-12T12:11:12.870Z,5.00
2018-12-12T12:12:18.404Z,5.40
2018-12-12T12:13:23.939Z,6.30
2018-12-12T12:14:29.468Z,6.00
2018-12-12T12:15:35.003Z,5.70
2018-12-12T12:16:40.534Z,3.80
2018-12-12T12:17:46.065Z,5.00
2018-12-12T12:18:51.603Z,9.80
2018-12-12T12:19:57.132Z,8.30
2018-12-12T12:21:02.663Z,4.20
2018-12-12T12:22:08.200Z,7.60
2018-12-12T12:23:13.729Z,8.60
2018-12-12T12:24:19.261Z,5.30
2018-12-12T12:25:24.793Z,5.40
2018-12-12T12:26:30.325Z,6.00
2018-12-12T12:27:35.861Z,5.80
2018-12-12T12:28:41.393Z,8.30
2018-12-12T12:29:46.922Z,4.20
2018-12-12T12:30:52.458Z,3.10
2018-12-12T12:31:57.987Z,6.00
2018-12-12T12:33:03.516Z,6.00
2018-12-12T12:34:09.053Z,7.70
2018-12-12T12:35:14.588Z,3.10
2018-12-12T12:36:20.115Z,4.40
2018-12-12T12:37:25.650Z,3.00
2018-12-12T12:38:31.180Z,2.80
2018-12-12T12:39:36.711Z,3.60
2018-12-12T12:40:42.249Z,3.40
2018-12-12T12:41:47.784Z,5.00
2018-12-12T12:42:53.307Z,2.70
2018-12-12T12:43:58.842Z,5.30
2018-12-12T12:45:04.374Z,5.80
2018-12-12T12:46:09.903Z,2.60
2018-12-12T12:47:15.442Z,2.80
2018-12-12T12:48:20.969Z,2.30
2018-12-12T12:49:26.504Z,3.60
2018-12-12T12:50:32.034Z,5.20
2018-12-12T12:51:37.571Z,2.70
2018-12-12T12:52:43.103Z,4.60
2018-12-12T12:53:48.636Z,4.70
2018-12-12T12:54:54.165Z,2.60
2018-12-12T12:55:59.696Z,2.70
2018-12-12T12:57:05.228Z,7.00
2018-12-12T12:58:10.766Z,4.70
2018-12-12T12:59:16.290Z,3.50
2018-12-12T13:00:21.829Z,2.30
2018-12-12T13:01:27.358Z,2.30
2018-12-12T13:02:32.891Z,3.20
2018-12-12T13:03:38.418Z,3.00
2018-12-12T13:04:43.952Z,4.70
2018-12-12T13:05:49.485Z,2.90
2018-12-12T13:06:55.014Z,2.30
2018-12-12T13:08:00.548Z,2.30
2018-12-12T13:09:06.084Z,3.10
2018-12-12T13:10:11.764Z,4.00
2018-12-12T13:11:17.148Z,2.50
2018-12-12T13:12:22.677Z,3.60
2018-12-12T13:13:28.417Z,3.70
2018-12-12T13:14:33.743Z,2.40
2018-12-12T13:15:39.273Z,2.10
2018-12-12T13:16:44.807Z,2.50
2018-12-12T13:17:50.338Z,3.40
2018-12-12T13:18:55.865Z,1.90
2018-12-12T13:20:01.400Z,2.40
2018-12-12T13:21:06.937Z,4.10
2018-12-12T13:22:12.462Z,4.40
2018-12-12T13:23:18.000Z,2.30
2018-12-12T13:24:23.528Z,3.10
2018-12-12T13:25:29.071Z,3.00
2018-12-12T13:26:34.591Z,3.80
2018-12-12T13:27:40.123Z,3.90
2018-12-12T13:28:45.656Z,2.00
2018-12-12T13:29:51.186Z,3.40
2018-12-12T13:30:56.721Z,2.10
2018-12-12T13:32:02.249Z,2.30
2018-12-12T13:33:07.780Z,3.20
2018-12-12T13:34:16.158Z,4.00
2018-12-12T13:35:18.849Z,3.20
2018-12-12T13:36:24.376Z,3.80
2018-12-12T13:37:29.924Z,4.30
2018-12-12T13:38:35.444Z,2.30
2018-12-12T13:39:40.978Z,2.60
2018-12-12T13:40:46.505Z,2.40
2018-12-12T13:41:52.042Z,2.40
2018-12-12T13:42:57.568Z,3.40
2018-12-12T13:44:03.105Z,2.80
2018-12-12T13:45:08.635Z,2.10
2018-12-12T13:46:14.159Z,2.60
2018-12-12T13:47:19.700Z,4.10
2018-12-12T13:48:25.228Z,1.80
2018-12-12T13:49:30.762Z,4.90
2018-12-12T13:50:36.295Z,5.00
2018-12-12T13:51:41.822Z,8.70
2018-12-12T13:52:47.355Z,6.10
2018-12-12T13:53:52.885Z,8.40
2018-12-12T13:54:58.419Z,7.60
2018-12-12T13:56:03.959Z,6.60
2018-12-12T13:57:09.525Z,9.40
2018-12-12T13:58:15.019Z,10.90
2018-12-12T13:59:20.559Z,7.20
2018-12-12T14:00:26.081Z,5.00
2018-12-12T14:01:31.613Z,4.40
2018-12-12T14:02:37.143Z,5.20
2018-12-12T14:03:42.675Z,5.60
2018-12-12T14:04:48.203Z,3.80
2018-12-12T14:05:53.741Z,3.50
2018-12-12T14:06:59.280Z,3.20
2018-12-12T14:08:04.801Z,2.00
2018-12-12T14:09:10.330Z,4.80
2018-12-12T14:10:15.865Z,6.90
2018-12-12T14:11:21.395Z,3.10
2018-12-12T14:12:26.926Z,2.60
2018-12-12T14:13:32.466Z,2.20
2018-12-12T14:14:37.994Z,2.70
2018-12-12T14:15:43.526Z,4.20
2018-12-12T14:16:49.061Z,3.20
2018-12-12T14:17:54.592Z,3.80
2018-12-12T14:19:00.116Z,2.20
2018-12-12T14:20:05.660Z,2.90
2018-12-12T14:21:11.182Z,1.80
2018-12-12T14:22:16.717Z,2.40
2018-12-12T14:23:22.249Z,4.30
2018-12-12T14:24:27.779Z,2.30
2018-12-12T14:25:33.319Z,1.90
2018-12-12T14:26:38.838Z,2.60
2018-12-12T14:27:44.370Z,2.80
2018-12-12T14:28:49.904Z,1.50
2018-12-12T14:29:55.435Z,2.20
2018-12-12T14:31:00.967Z,1.70
2018-12-12T14:32:06.502Z,5.50
2018-12-12T14:33:12.029Z,4.40
2018-12-12T14:34:17.566Z,4.20
2018-12-12T14:35:23.098Z,3.10
2018-12-12T14:36:28.631Z,2.80
2018-12-12T14:37:34.155Z,2.80
2018-12-12T14:38:39.683Z,4.70
2018-12-12T14:39:45.220Z,4.30
2018-12-12T14:40:50.750Z,3.40
2018-12-12T14:41:56.289Z,2.40
2018-12-12T14:43:01.813Z,3.20
2018-12-12T14:44:07.350Z,3.20
2018-12-12T14:45:12.877Z,3.30
2018-12-12T14:46:18.420Z,4.30
2018-12-12T14:47:23.941Z,3.40